Time;durP1;ratioP1;P1;durP2;ratioP2;P2;SDS_P1;SDS_P2;PMS_P1;PMS_P2;Temp;Humidity;BMP_temperature;BMP_pressure;BME280_temperature;BME280_humidity;BME280_pressure;Samples;Min_cycle;Max_cycle;Signal;HPM_P1;HPM_P2
2023/06/12 00:01:14;;;;;;;1.50;0.90;;;21.10;74.50;;;;;;4992602;28;20551;-78
2023/06/12 00:03:42;;;;;;;1.47;0.90;;;21.00;74.50;;;;;;4999642;28;20471;-79
2023/06/12 00:06:10;;;;;;;1.50;0.90;;;21.00;74.50;;;;;;4992649;28;20486;-78
2023/06/12 00:08:41;;;;;;;1.50;1.00;;;20.90;74.80;;;;;;5001667;28;20479;-79
2023/06/12 00:11:09;;;;;;;1.50;1.00;;;20.80;75.50;;;;;;4991503;28;20539;-78
2023/06/12 00:13:36;;;;;;;1.50;0.90;;;20.80;75.50;;;;;;5003317;28;20492;-80
2023/06/12 00:16:03;;;;;;;1.50;0.90;;;20.70;75.20;;;;;;4996020;28;20481;-80
2023/06/12 00:18:31;;;;;;;1.47;0.90;;;20.60;75.60;;;;;;5002775;28;20479;-79
2023/06/12 00:20:58;;;;;;;1.47;0.90;;;20.60;76.00;;;;;;4989002;28;20471;-79
2023/06/12 00:23:25;;;;;;;1.47;0.90;;;20.50;76.50;;;;;;5004091;28;20475;-80
2023/06/12 00:25:51;;;;;;;1.47;0.90;;;20.50;76.70;;;;;;4991519;28;20468;-80
2023/06/12 00:28:18;;;;;;;1.47;0.90;;;20.50;76.70;;;;;;5000987;28;20487;-80
2023/06/12 00:30:45;;;;;;;1.40;0.90;;;20.40;77.10;;;;;;5004412;28;20460;-79
2023/06/12 00:33:11;;;;;;;1.47;0.90;;;20.40;77.40;;;;;;4974393;28;20488;-80
2023/06/12 00:35:40;;;;;;;1.50;0.90;;;20.40;77.60;;;;;;5006507;28;20460;-80
2023/06/12 00:38:07;;;;;;;1.50;0.90;;;20.30;77.70;;;;;;4975944;28;20504;-79
2023/06/12 00:40:34;;;;;;;1.47;0.97;;;20.20;77.70;;;;;;5008301;28;20538;-80
2023/06/12 00:43:00;;;;;;;1.50;0.90;;;20.20;77.80;;;;;;5005216;23;20505;-82
2023/06/12 00:45:27;;;;;;;1.47;0.90;;;20.20;78.20;;;;;;5006923;28;20456;-81
2023/06/12 00:47:57;;;;;;;1.47;0.90;;;20.10;77.90;;;;;;4989179;28;20481;-82
2023/06/12 00:50:27;;;;;;;1.40;0.90;;;20.10;78.70;;;;;;4996153;28;20459;-80
2023/06/12 00:52:57;;;;;;;1.47;0.90;;;20.00;78.20;;;;;;4986627;28;21050;-78
2023/06/12 00:55:25;;;;;;;1.43;0.90;;;20.00;78.30;;;;;;4997627;28;20471;-81
2023/06/12 00:57:52;;;;;;;1.50;0.90;;;19.90;78.90;;;;;;4991567;28;20489;-81
2023/06/12 01:00:20;;;;;;;1.47;0.90;;;19.90;79.50;;;;;;4998513;28;20540;-82
2023/06/12 01:02:50;;;;;;;1.47;0.90;;;19.90;79.20;;;;;;4989734;28;20562;-83
2023/06/12 01:05:20;;;;;;;1.43;0.90;;;19.90;79.80;;;;;;4997645;28;20519;-83
2023/06/12 01:07:52;;;;;;;1.43;0.90;;;19.80;79.80;;;;;;4990819;28;20514;-85
2023/06/12 01:10:27;;;;;;;1.47;0.90;;;19.80;80.20;;;;;;5001327;28;20543;-84
2023/06/12 01:12:55;;;;;;;1.50;0.93;;;19.80;80.30;;;;;;4989594;28;20500;-83
2023/06/12 01:15:22;;;;;;;1.43;0.90;;;19.70;80.90;;;;;;5002880;28;20453;-81
2023/06/12 01:17:49;;;;;;;1.47;0.90;;;19.70;81.30;;;;;;4988381;28;20489;-85
2023/06/12 01:20:18;;;;;;;1.50;0.90;;;19.70;81.40;;;;;;5001101;28;20462;-83
2023/06/12 01:22:51;;;;;;;1.43;0.90;;;19.60;82.10;;;;;;4989672;28;20568;-81
2023/06/12 01:25:50;;;;;;;1.43;0.90;;;19.60;81.50;;;;;;4996911;28;20965;-83
2023/06/12 01:28:32;;;;;;;1.47;0.90;;;19.50;81.70;;;;;;4981724;28;20564;-81
2023/06/12 01:31:14;;;;;;;1.43;1.00;;;19.50;81.60;;;;;;4984862;28;20472;-80
2023/06/12 01:33:50;;;;;;;1.47;1.00;;;19.50;81.50;;;;;;4998959;28;20540;-83
2023/06/12 01:36:20;;;;;;;1.50;0.90;;;19.40;81.60;;;;;;4982521;28;20484;-78
2023/06/12 01:38:54;;;;;;;1.40;0.90;;;19.40;81.40;;;;;;4992682;28;20476;-79
2023/06/12 01:41:22;;;;;;;1.47;0.90;;;19.30;82.50;;;;;;4991621;28;20473;-81
2023/06/12 01:43:49;;;;;;;1.50;0.90;;;19.30;82.40;;;;;;5003898;28;20481;-82
2023/06/12 01:46:15;;;;;;;1.50;0.90;;;19.30;82.30;;;;;;4997470;28;20513;-81
2023/06/12 01:48:44;;;;;;;1.50;0.90;;;19.20;83.40;;;;;;5013185;28;20468;-82
2023/06/12 01:51:10;;;;;;;1.50;0.90;;;19.20;82.30;;;;;;4994270;28;20507;-83
2023/06/12 01:53:37;;;;;;;1.40;1.00;;;19.10;82.50;;;;;;5006401;28;20484;-79
2023/06/12 01:56:05;;;;;;;1.40;0.90;;;19.10;82.20;;;;;;4991811;28;20549;-82
2023/06/12 01:58:32;;;;;;;1.43;0.90;;;19.10;82.80;;;;;;5004622;28;20464;-81
2023/06/12 02:00:58;;;;;;;1.47;0.90;;;19.00;82.30;;;;;;4990767;28;20473;-83
2023/06/12 02:03:25;;;;;;;1.43;0.90;;;19.00;82.80;;;;;;4986126;28;20511;-81
2023/06/12 02:05:53;;;;;;;1.43;0.80;;;18.90;82.60;;;;;;4992566;28;20480;-82
2023/06/12 02:08:20;;;;;;;1.50;0.90;;;18.90;82.80;;;;;;4985249;28;20467;-84
2023/06/12 02:10:47;;;;;;;1.47;0.90;;;18.80;82.30;;;;;;5003395;28;20467;-83
2023/06/12 02:13:14;;;;;;;1.77;1.40;;;18.80;84.20;;;;;;5006278;28;20497;-81
2023/06/12 02:15:41;;;;;;;1.43;0.90;;;18.80;83.90;;;;;;5003862;28;20465;-82
2023/06/12 02:18:07;;;;;;;1.43;0.90;;;18.70;84.10;;;;;;5001654;28;20479;-81
2023/06/12 02:20:34;;;;;;;1.50;1.10;;;18.70;84.60;;;;;;5004047;28;20464;-84
2023/06/12 02:23:03;;;;;;;1.50;0.90;;;18.70;84.70;;;;;;4996459;28;20480;-86
2023/06/12 02:25:29;;;;;;;1.47;0.90;;;18.60;85.20;;;;;;5004866;28;20460;-83
2023/06/12 02:27:56;;;;;;;1.50;1.00;;;18.60;85.40;;;;;;4996296;28;20488;-80
2023/06/12 02:30:23;;;;;;;1.43;0.90;;;18.60;85.20;;;;;;5003700;28;20469;-84
2023/06/12 02:32:50;;;;;;;1.43;0.90;;;18.50;85.00;;;;;;4995176;28;20512;-82
2023/06/12 02:35:17;;;;;;;1.40;0.90;;;18.50;85.30;;;;;;5002294;28;20548;-82
2023/06/12 02:37:43;;;;;;;1.50;0.90;;;18.50;85.50;;;;;;4991491;28;20492;-79
2023/06/12 02:40:13;;;;;;;1.43;1.00;;;18.50;85.80;;;;;;5000010;28;20457;-82
2023/06/12 02:42:40;;;;;;;1.50;0.97;;;18.50;85.40;;;;;;4999338;28;20480;-82
2023/06/12 02:45:08;;;;;;;1.47;0.90;;;18.40;85.40;;;;;;5000977;28;20537;-79
2023/06/12 02:47:34;;;;;;;1.50;0.97;;;18.40;86.00;;;;;;4993130;28;20853;-82
2023/06/12 02:50:02;;;;;;;1.50;0.90;;;18.40;85.50;;;;;;5003462;28;20580;-80
2023/06/12 02:52:29;;;;;;;1.50;0.90;;;18.30;85.80;;;;;;4996002;28;20468;-80
2023/06/12 02:54:56;;;;;;;1.50;0.90;;;18.30;85.90;;;;;;5000476;28;20488;-83
2023/06/12 02:57:24;;;;;;;1.40;0.90;;;18.30;85.80;;;;;;4997792;28;20491;-82
2023/06/12 02:59:51;;;;;;;1.47;1.00;;;18.30;86.80;;;;;;5004108;28;20512;-83
2023/06/12 03:02:17;;;;;;;1.50;0.90;;;18.20;86.20;;;;;;4998273;28;20897;-83
2023/06/12 03:04:44;;;;;;;1.43;0.90;;;18.20;86.70;;;;;;5001541;28;20465;-82
2023/06/12 03:07:13;;;;;;;1.47;0.90;;;18.20;86.50;;;;;;4993252;28;20490;-82
2023/06/12 03:09:40;;;;;;;1.50;0.90;;;18.10;86.80;;;;;;4997479;28;21080;-84
2023/06/12 03:12:08;;;;;;;1.50;0.90;;;18.10;87.10;;;;;;4993097;28;20519;-82
2023/06/12 03:14:38;;;;;;;1.50;0.90;;;18.10;87.10;;;;;;4999754;28;20596;-81
2023/06/12 03:17:06;;;;;;;1.50;0.90;;;18.10;87.70;;;;;;4985813;28;20508;-81
2023/06/12 03:19:32;;;;;;;1.47;0.90;;;18.00;87.80;;;;;;5005207;28;20956;-84
2023/06/12 03:21:59;;;;;;;1.50;0.90;;;18.00;88.00;;;;;;5001225;28;20483;-78
2023/06/12 03:24:29;;;;;;;1.43;1.00;;;18.00;88.40;;;;;;5010456;28;20445;-85
2023/06/12 03:26:57;;;;;;;1.47;0.90;;;18.00;88.10;;;;;;4978308;28;20477;-79
2023/06/12 03:29:24;;;;;;;1.47;0.90;;;18.00;88.20;;;;;;4989366;28;20866;-79
2023/06/12 03:31:53;;;;;;;1.43;0.90;;;18.00;88.90;;;;;;4983242;28;20564;-79
2023/06/12 03:34:20;;;;;;;1.50;0.90;;;17.90;89.60;;;;;;4998235;28;20562;-78
2023/06/12 03:36:47;;;;;;;1.43;0.90;;;17.90;89.10;;;;;;4989161;28;20503;-82
2023/06/12 03:39:14;;;;;;;1.40;0.90;;;17.90;89.90;;;;;;5000467;28;20463;-82
2023/06/12 03:41:53;;;;;;;1.50;1.00;;;17.90;89.60;;;;;;4989508;28;21048;-80
2023/06/12 03:44:20;;;;;;;1.43;0.90;;;17.90;90.30;;;;;;4997416;28;21128;-79
2023/06/12 03:46:47;;;;;;;1.50;0.90;;;17.90;90.00;;;;;;4981600;28;20646;-79
2023/06/12 03:49:15;;;;;;;1.47;1.00;;;18.00;89.90;;;;;;4999371;28;20461;-80
2023/06/12 03:51:42;;;;;;;1.50;1.00;;;18.00;89.90;;;;;;4986680;28;20488;-82
2023/06/12 03:54:09;;;;;;;1.50;0.90;;;18.00;90.00;;;;;;5008049;28;20488;-82
2023/06/12 03:56:36;;;;;;;1.43;0.90;;;18.00;90.20;;;;;;4989005;28;20537;-83
2023/06/12 03:59:03;;;;;;;1.50;1.00;;;18.00;90.60;;;;;;5005908;28;20465;-79
2023/06/12 04:01:30;;;;;;;1.40;0.90;;;18.00;90.40;;;;;;4986067;28;20483;-82
2023/06/12 04:03:57;;;;;;;1.40;1.00;;;18.00;90.90;;;;;;4998972;28;20488;-80
2023/06/12 04:06:25;;;;;;;1.40;0.90;;;18.00;90.90;;;;;;4987509;28;20998;-79
2023/06/12 04:08:52;;;;;;;1.47;1.00;;;18.10;90.50;;;;;;5000328;28;20461;-85
2023/06/12 04:11:19;;;;;;;1.47;0.90;;;18.10;90.40;;;;;;4983837;28;20497;-83
2023/06/12 04:13:46;;;;;;;1.50;0.90;;;18.10;90.80;;;;;;4984368;28;20495;-81
2023/06/12 04:16:13;;;;;;;1.50;1.00;;;18.10;90.40;;;;;;4995561;28;21033;-80
2023/06/12 04:18:40;;;;;;;1.50;1.00;;;18.20;90.10;;;;;;5001093;28;21113;-84
2023/06/12 04:21:08;;;;;;;1.50;0.90;;;18.20;89.30;;;;;;4994720;28;20474;-81
2023/06/12 04:23:41;;;;;;;1.50;0.90;;;18.20;89.60;;;;;;5010229;28;21018;-81
2023/06/12 04:26:08;;;;;;;1.50;1.00;;;18.20;89.60;;;;;;4992114;28;20476;-85
2023/06/12 04:28:35;;;;;;;1.50;0.90;;;18.30;89.40;;;;;;5006856;28;20881;-81
2023/06/12 04:31:02;;;;;;;1.50;0.90;;;18.20;89.20;;;;;;4993515;28;20484;-82
2023/06/12 04:33:30;;;;;;;1.43;1.00;;;18.20;88.50;;;;;;4986842;28;20498;-83
2023/06/12 04:35:57;;;;;;;1.47;0.90;;;18.20;88.70;;;;;;4989297;28;20505;-79
2023/06/12 04:38:25;;;;;;;1.43;0.90;;;18.30;87.90;;;;;;4984789;28;20536;-81
2023/06/12 04:40:54;;;;;;;1.50;0.90;;;18.40;87.70;;;;;;4988908;28;20519;-81
2023/06/12 04:43:23;;;;;;;1.50;0.90;;;18.40;87.30;;;;;;5002945;28;20571;-81
2023/06/12 04:45:51;;;;;;;1.40;0.90;;;18.50;87.50;;;;;;4990575;28;20461;-82
2023/06/12 04:48:18;;;;;;;1.43;1.00;;;18.60;86.90;;;;;;5004095;28;20547;-82
2023/06/12 04:50:48;;;;;;;1.47;0.90;;;18.70;86.80;;;;;;5003986;28;20496;-84
2023/06/12 04:53:17;;;;;;;1.43;0.90;;;18.90;86.60;;;;;;4971638;28;20543;-83
2023/06/12 04:55:50;;;;;;;1.47;0.90;;;19.00;86.20;;;;;;5002507;28;20535;-83
2023/06/12 04:58:18;;;;;;;1.47;0.90;;;19.20;86.50;;;;;;4971966;28;21062;-83
2023/06/12 05:00:47;;;;;;;1.47;0.90;;;19.40;86.10;;;;;;5000561;28;20460;-80
2023/06/12 05:03:15;;;;;;;1.50;0.90;;;19.60;86.10;;;;;;4976258;28;20925;-82
2023/06/12 05:05:41;;;;;;;1.47;0.90;;;19.80;85.50;;;;;;5004854;28;20525;-86
2023/06/12 05:08:08;;;;;;;1.50;0.90;;;20.00;85.80;;;;;;4996414;28;20477;-83
2023/06/12 05:10:35;;;;;;;1.50;0.90;;;20.20;85.70;;;;;;5005817;28;20550;-84
2023/06/12 05:13:02;;;;;;;1.50;0.90;;;20.40;85.00;;;;;;4995237;28;20510;-84
2023/06/12 05:15:31;;;;;;;1.43;0.90;;;20.60;83.60;;;;;;5007959;28;20467;-82
2023/06/12 05:17:57;;;;;;;1.47;0.90;;;20.70;83.30;;;;;;4996767;28;21197;-84
2023/06/12 05:20:25;;;;;;;1.50;0.90;;;20.90;83.10;;;;;;5011029;28;20460;-84
2023/06/12 05:22:52;;;;;;;1.47;0.90;;;21.10;83.10;;;;;;4973037;28;20565;-83
2023/06/12 05:25:19;;;;;;;1.47;0.90;;;21.30;82.80;;;;;;5007413;28;20529;-82
2023/06/12 05:27:46;;;;;;;1.50;0.90;;;21.50;82.40;;;;;;4994305;28;20489;-83
2023/06/12 05:30:13;;;;;;;1.50;0.90;;;21.70;81.70;;;;;;5005379;28;20464;-81
2023/06/12 05:32:41;;;;;;;1.50;0.90;;;21.80;80.50;;;;;;5000860;28;20491;-78
2023/06/12 05:35:09;;;;;;;1.70;1.43;;;21.90;80.70;;;;;;4998886;28;20544;-77
2023/06/12 05:37:36;;;;;;;1.50;0.90;;;22.00;80.30;;;;;;4972824;28;20477;-79
2023/06/12 05:40:05;;;;;;;1.50;0.90;;;22.10;80.00;;;;;;5003087;28;20464;-80
2023/06/12 05:42:32;;;;;;;1.50;0.90;;;22.10;79.40;;;;;;4987588;28;20631;-80
2023/06/12 05:44:59;;;;;;;1.50;0.90;;;22.10;79.10;;;;;;4997578;28;22721;-80
2023/06/12 05:47:26;;;;;;;1.40;0.90;;;22.20;79.60;;;;;;4986649;28;20495;-78
2023/06/12 05:49:55;;;;;;;1.40;0.90;;;22.40;79.10;;;;;;5000424;28;20465;-83
2023/06/12 05:52:21;;;;;;;1.50;0.90;;;22.50;78.00;;;;;;4991969;28;20492;-77
2023/06/12 05:54:48;;;;;;;1.60;1.20;;;22.60;78.60;;;;;;4993991;28;20480;-81
2023/06/12 05:57:15;;;;;;;1.43;0.90;;;22.70;78.70;;;;;;4976586;28;20496;-78
2023/06/12 05:59:43;;;;;;;1.50;0.90;;;22.80;77.70;;;;;;4992706;28;20574;-81
2023/06/12 06:02:10;;;;;;;1.50;0.90;;;22.80;77.40;;;;;;4983738;28;20591;-78
2023/06/12 06:04:37;;;;;;;1.50;0.90;;;22.90;77.00;;;;;;4989943;28;20822;-80
2023/06/12 06:07:07;;;;;;;1.47;0.90;;;22.90;76.90;;;;;;4978071;28;20985;-79
2023/06/12 06:09:34;;;;;;;1.40;0.90;;;23.00;76.70;;;;;;4994913;28;20465;-79
2023/06/12 06:12:01;;;;;;;1.47;0.90;;;23.20;77.10;;;;;;4984754;28;20624;-80
2023/06/12 06:14:29;;;;;;;1.47;0.90;;;23.30;76.40;;;;;;4993524;28;20484;-80
2023/06/12 06:16:56;;;;;;;1.47;0.90;;;23.40;76.20;;;;;;4986563;28;20485;-81
2023/06/12 06:19:23;;;;;;;1.50;1.00;;;23.60;76.20;;;;;;5000537;28;20475;-81
2023/06/12 06:21:50;;;;;;;1.50;0.90;;;23.90;76.10;;;;;;4988751;28;20531;-83
2023/06/12 06:24:18;;;;;;;1.47;0.90;;;24.10;75.20;;;;;;5002777;28;20468;-78
2023/06/12 06:26:45;;;;;;;1.70;1.27;;;24.10;74.30;;;;;;4977228;28;21007;-83
2023/06/12 06:29:12;;;;;;;1.43;0.90;;;24.10;75.10;;;;;;4996051;28;20621;-81
2023/06/12 06:31:38;;;;;;;1.43;0.90;;;24.20;74.60;;;;;;4994497;28;20487;-79
2023/06/12 06:34:10;;;;;;;1.43;0.90;;;24.20;75.30;;;;;;4999374;28;20933;-75
2023/06/12 06:36:37;;;;;;;1.47;0.90;;;24.50;74.80;;;;;;4987454;28;20532;-82
2023/06/12 06:39:04;;;;;;;1.47;0.90;;;24.60;73.60;;;;;;4998687;28;20842;-83
2023/06/12 06:41:32;;;;;;;1.50;0.80;;;24.70;74.00;;;;;;4988055;28;20486;-80
2023/06/12 06:43:59;;;;;;;1.43;0.87;;;24.80;73.60;;;;;;4994139;28;20489;-80
2023/06/12 06:46:26;;;;;;;1.47;0.80;;;24.90;74.10;;;;;;4980143;28;20796;-81
2023/06/12 06:48:53;;;;;;;1.47;0.90;;;25.10;73.80;;;;;;4982846;28;20470;-82
2023/06/12 06:51:21;;;;;;;1.50;0.90;;;25.30;73.60;;;;;;4984423;28;21010;-81
2023/06/12 06:53:47;;;;;;;3.50;2.20;;;25.40;72.70;;;;;;4997498;28;20519;-82
2023/06/12 06:56:16;;;;;;;1.50;0.90;;;25.50;70.90;;;;;;4980522;28;20482;-81
2023/06/12 06:58:44;;;;;;;1.50;0.87;;;25.60;70.40;;;;;;4987168;28;20516;-83
2023/06/12 07:01:11;;;;;;;2.03;1.83;;;25.70;69.40;;;;;;4988078;28;21520;-83
2023/06/12 07:03:39;;;;;;;1.50;0.90;;;25.80;69.90;;;;;;4997369;28;20585;-82
2023/06/12 07:06:06;;;;;;;1.47;0.80;;;25.90;69.70;;;;;;4980536;28;20530;-80
2023/06/12 07:08:33;;;;;;;1.40;0.80;;;26.00;69.10;;;;;;4981357;28;20551;-78
2023/06/12 07:11:00;;;;;;;1.50;0.90;;;26.20;68.60;;;;;;4981208;28;20461;-79
2023/06/12 07:13:27;;;;;;;1.50;0.90;;;26.30;68.70;;;;;;4998090;28;20476;-79
2023/06/12 07:15:55;;;;;;;1.50;0.90;;;26.40;68.40;;;;;;4982115;28;20985;-83
2023/06/12 07:18:22;;;;;;;1.47;0.80;;;26.60;67.60;;;;;;4992298;28;20457;-79
2023/06/12 07:20:49;;;;;;;1.50;0.90;;;26.60;67.60;;;;;;4987330;28;20870;-81
2023/06/12 07:23:16;;;;;;;1.40;0.80;;;26.70;67.50;;;;;;4996902;28;20588;-83
2023/06/12 07:25:43;;;;;;;1.47;0.90;;;26.70;67.20;;;;;;4990219;28;20524;-79
2023/06/12 07:28:10;;;;;;;1.50;0.90;;;26.70;67.50;;;;;;4984161;28;20503;-80
2023/06/12 07:30:36;;;;;;;1.47;0.80;;;26.60;67.60;;;;;;4993865;28;20747;-83
2023/06/12 07:33:05;;;;;;;2.07;1.37;;;26.80;68.80;;;;;;4986111;28;20491;-80
2023/06/12 07:35:32;;;;;;;1.47;0.80;;;27.00;68.20;;;;;;4992050;28;20492;-86
2023/06/12 07:37:59;;;;;;;1.47;0.80;;;27.10;67.50;;;;;;4981946;28;20483;-82
2023/06/12 07:40:25;;;;;;;1.47;0.83;;;27.20;68.10;;;;;;4989833;28;20923;-81
2023/06/12 07:42:52;;;;;;;1.50;0.90;;;27.50;66.50;;;;;;4977309;28;20488;-81
2023/06/12 07:45:19;;;;;;;1.43;0.80;;;27.80;65.20;;;;;;4991247;28;20472;-82
2023/06/12 07:47:47;;;;;;;1.47;0.90;;;27.80;64.90;;;;;;4978537;28;20536;-78
2023/06/12 07:50:15;;;;;;;1.50;0.90;;;27.70;63.90;;;;;;4989331;28;20959;-81
2023/06/12 07:52:42;;;;;;;1.40;0.80;;;27.60;65.00;;;;;;4981467;28;20515;-79
2023/06/12 07:55:10;;;;;;;1.47;0.80;;;27.50;65.20;;;;;;4993510;28;20496;-81
2023/06/12 07:57:37;;;;;;;1.47;0.90;;;27.60;65.30;;;;;;4979580;28;20484;-78
2023/06/12 08:00:05;;;;;;;1.50;0.90;;;27.70;65.60;;;;;;4986276;28;20460;-79
2023/06/12 08:02:33;;;;;;;1.50;1.00;;;27.70;65.60;;;;;;4980414;28;20543;-81
2023/06/12 08:05:00;;;;;;;1.50;0.80;;;28.00;65.90;;;;;;4995794;28;20465;-82
2023/06/12 08:07:30;;;;;;;1.47;0.80;;;28.00;64.30;;;;;;4981460;28;20491;-81
2023/06/12 08:09:57;;;;;;;2.00;1.43;;;28.00;64.70;;;;;;4990839;28;20912;-82
2023/06/12 08:12:24;;;;;;;1.50;0.90;;;28.10;65.10;;;;;;4983178;28;20484;-82
2023/06/12 08:14:51;;;;;;;1.47;0.80;;;28.20;64.70;;;;;;4993160;28;20579;-77
2023/06/12 08:17:20;;;;;;;1.50;0.80;;;28.40;64.10;;;;;;4985011;28;20676;-81
2023/06/12 08:19:48;;;;;;;1.47;0.80;;;28.50;64.40;;;;;;4987874;28;20884;-79
2023/06/12 08:22:15;;;;;;;1.47;0.90;;;28.70;62.90;;;;;;4977875;28;20624;-78
2023/06/12 08:24:46;;;;;;;1.50;0.80;;;28.70;63.50;;;;;;4989565;28;20456;-80
2023/06/12 08:27:13;;;;;;;1.47;0.80;;;28.70;63.20;;;;;;4983046;28;20504;-81
2023/06/12 08:29:40;;;;;;;1.47;0.80;;;28.80;63.90;;;;;;4992402;28;20468;-81
2023/06/12 08:32:08;;;;;;;5.60;3.03;;;28.80;64.50;;;;;;4979773;28;20476;-79
2023/06/12 08:34:35;;;;;;;1.47;0.80;;;28.90;64.10;;;;;;4994606;28;20942;-77
2023/06/12 08:37:02;;;;;;;1.50;0.90;;;29.10;64.40;;;;;;4979803;28;20480;-79
2023/06/12 08:39:29;;;;;;;1.50;0.90;;;29.20;63.40;;;;;;4990914;28;20465;-81
2023/06/12 08:42:03;;;;;;;1.50;0.80;;;29.20;63.50;;;;;;4985846;28;20475;-82
2023/06/12 08:44:30;;;;;;;1.40;0.80;;;29.50;63.60;;;;;;4993232;28;20718;-81
2023/06/12 08:47:01;;;;;;;1.43;0.80;;;29.70;63.00;;;;;;4981799;28;20504;-79
2023/06/12 08:49:28;;;;;;;1.43;0.80;;;29.60;62.40;;;;;;4995429;28;20461;-79
2023/06/12 08:51:55;;;;;;;1.47;0.90;;;29.70;63.00;;;;;;4985449;28;20995;-83
2023/06/12 08:54:22;;;;;;;1.90;1.23;;;29.70;63.00;;;;;;4990545;28;20494;-80
2023/06/12 08:56:49;;;;;;;1.43;0.80;;;29.70;62.90;;;;;;4980472;28;20499;-82
2023/06/12 08:59:18;;;;;;;1.50;0.80;;;29.80;63.50;;;;;;4987939;28;20456;-82
2023/06/12 09:01:50;;;;;;;1.40;0.80;;;29.90;63.80;;;;;;4974479;28;20485;-80
2023/06/12 09:04:29;;;;;;;1.47;0.80;;;29.90;63.10;;;;;;4994335;28;20549;-80
2023/06/12 09:07:01;;;;;;;1.50;0.80;;;30.10;62.70;;;;;;4989360;28;20475;-80
2023/06/12 09:09:37;;;;;;;1.50;0.90;;;30.20;62.70;;;;;;4999021;28;20802;-79
2023/06/12 09:12:05;;;;;;;1.50;0.80;;;30.30;62.40;;;;;;4982967;28;20911;-80
2023/06/12 09:14:35;;;;;;;1.43;0.80;;;30.50;62.20;;;;;;4993658;28;20484;-77
2023/06/12 09:17:02;;;;;;;1.50;0.80;;;30.50;62.20;;;;;;4980810;28;20858;-78
2023/06/12 09:19:36;;;;;;;1.43;0.80;;;30.50;61.80;;;;;;4993256;28;20464;-81
2023/06/12 09:22:03;;;;;;;1.47;0.80;;;30.60;62.10;;;;;;4983875;28;20468;-80
2023/06/12 09:24:30;;;;;;;1.43;0.90;;;30.60;61.60;;;;;;4991554;28;20456;-81
2023/06/12 09:26:57;;;;;;;1.47;0.80;;;30.70;62.30;;;;;;4981876;28;20476;-80
2023/06/12 09:29:27;;;;;;;1.50;0.90;;;30.80;62.00;;;;;;4991517;28;20468;-79
2023/06/12 09:31:55;;;;;;;1.43;0.80;;;30.70;61.80;;;;;;4981758;28;20572;-80
2023/06/12 09:34:24;;;;;;;1.50;0.90;;;30.70;62.20;;;;;;4991236;28;20511;-80
2023/06/12 09:36:51;;;;;;;1.47;0.80;;;30.70;61.50;;;;;;4981142;28;20229;-79
2023/06/12 09:39:26;;;;;;;1.50;0.80;;;30.90;61.40;;;;;;4990685;28;20744;-79
2023/06/12 09:41:53;;;;;;;1.80;1.43;;;31.10;61.10;;;;;;4979523;28;20498;-81
2023/06/12 09:44:21;;;;;;;1.40;0.80;;;31.20;60.40;;;;;;4992732;28;20861;-80
2023/06/12 09:46:48;;;;;;;1.43;0.80;;;31.20;60.60;;;;;;4985427;28;20487;-80
2023/06/12 09:49:20;;;;;;;1.50;1.07;;;31.30;60.10;;;;;;4998092;28;20205;-80
2023/06/12 09:51:49;;;;;;;1.73;1.27;;;31.50;60.40;;;;;;4988440;28;20239;-81
2023/06/12 09:54:17;;;;;;;1.47;0.87;;;31.50;58.70;;;;;;4992358;28;20197;-79
2023/06/12 09:56:46;;;;;;;1.43;0.80;;;31.50;59.00;;;;;;4984824;28;20236;-81
2023/06/12 09:59:16;;;;;;;1.47;0.90;;;31.70;58.50;;;;;;4991151;28;20215;-79
2023/06/12 10:01:48;;;;;;;1.50;0.90;;;31.70;57.40;;;;;;4980492;28;20233;-81
2023/06/12 10:04:23;;;;;;;1.40;0.80;;;31.70;57.90;;;;;;4992164;28;20227;-77
2023/06/12 10:06:52;;;;;;;1.50;1.00;;;31.90;58.50;;;;;;4979195;28;20256;-77
2023/06/12 10:09:20;;;;;;;1.40;0.80;;;32.10;57.50;;;;;;4992509;28;20208;-80
2023/06/12 10:11:49;;;;;;;1.40;0.80;;;32.40;57.30;;;;;;4979461;28;20247;-80
2023/06/12 10:14:18;;;;;;;1.40;0.80;;;32.20;55.40;;;;;;4992993;28;20208;-79
2023/06/12 10:16:47;;;;;;;1.43;0.80;;;32.10;56.10;;;;;;4985714;28;20680;-77
2023/06/12 10:19:16;;;;;;;1.60;1.23;;;32.20;56.90;;;;;;4992943;28;20232;-82
2023/06/12 10:21:45;;;;;;;1.50;0.90;;;32.30;56.70;;;;;;4982126;28;20257;-80
2023/06/12 10:24:12;;;;;;;1.40;0.80;;;32.40;56.40;;;;;;4991931;28;20233;-81
2023/06/12 10:26:40;;;;;;;1.40;0.80;;;32.20;56.70;;;;;;4983182;28;20233;-80
2023/06/12 10:29:26;;;;;;;1.43;0.90;;;32.10;56.90;;;;;;4990795;28;20205;-79
2023/06/12 10:31:53;;;;;;;1.40;0.80;;;32.00;56.30;;;;;;4983195;28;20306;-79
2023/06/12 10:34:21;;;;;;;1.40;0.80;;;32.10;56.30;;;;;;4993387;28;20273;-82
2023/06/12 10:36:49;;;;;;;2.73;1.90;;;32.40;56.70;;;;;;4982518;28;20236;-80
2023/06/12 10:39:17;;;;;;;1.40;0.80;;;32.40;56.40;;;;;;4992163;28;20210;-80
2023/06/12 10:41:55;;;;;;;1.40;0.80;;;32.70;56.10;;;;;;4985536;28;20328;-81
2023/06/12 10:44:39;;;;;;;1.40;0.80;;;32.80;54.40;;;;;;4992911;28;20217;-80
2023/06/12 10:47:17;;;;;;;1.40;0.83;;;32.70;54.60;;;;;;4982771;28;20293;-80
2023/06/12 10:50:01;;;;;;;1.40;0.80;;;32.60;54.70;;;;;;4992987;28;20260;-79
2023/06/12 10:52:28;;;;;;;1.40;0.90;;;32.70;56.20;;;;;;4967051;28;20303;-79
2023/06/12 10:55:14;;;;;;;1.42;0.90;;;32.90;55.70;;;;;;4988942;28;20263;-82
2023/06/12 10:57:49;;;;;;;1.40;0.80;;;33.00;55.30;;;;;;4981794;28;20700;-80
2023/06/12 11:00:17;;;;;;;1.42;0.80;;;33.20;54.60;;;;;;4992268;28;20208;-78
2023/06/12 11:02:46;;;;;;;1.42;0.98;;;33.60;54.80;;;;;;4980780;28;20268;-80
2023/06/12 11:05:19;;;;;;;1.40;0.80;;;33.80;53.40;;;;;;4992426;28;20266;-81
2023/06/12 11:07:49;;;;;;;1.50;1.00;;;34.00;53.50;;;;;;4983125;28;20287;-77
2023/06/12 11:10:17;;;;;;;1.40;0.80;;;34.20;53.80;;;;;;4996634;28;21198;-80
2023/06/12 11:12:47;;;;;;;1.40;0.80;;;34.40;52.30;;;;;;4983210;28;20309;-80
2023/06/12 11:15:14;;;;;;;1.40;0.80;;;34.30;52.90;;;;;;4991499;28;20280;-79
2023/06/12 11:17:41;;;;;;;1.40;0.80;;;34.00;53.40;;;;;;4985637;28;20232;-81
2023/06/12 11:20:10;;;;;;;1.40;0.80;;;34.00;54.10;;;;;;4987538;28;20202;-79
2023/06/12 11:22:38;;;;;;;2.28;2.08;;;34.00;54.30;;;;;;4983689;28;20795;-78
2023/06/12 11:25:06;;;;;;;1.40;0.80;;;34.10;54.00;;;;;;4984846;28;20197;-79
2023/06/12 11:27:35;;;;;;;1.40;0.90;;;34.10;54.20;;;;;;4981272;28;20224;-79
2023/06/12 11:30:10;;;;;;;1.40;0.80;;;34.10;53.70;;;;;;4990416;28;20205;-79
2023/06/12 11:32:38;;;;;;;1.40;0.80;;;34.20;54.80;;;;;;4968774;28;20241;-79
2023/06/12 11:35:07;;;;;;;1.40;0.80;;;34.40;54.70;;;;;;4990917;28;20610;-79
2023/06/12 11:37:34;;;;;;;1.40;0.93;;;34.50;52.90;;;;;;4982510;28;20280;-77
2023/06/12 11:40:08;;;;;;;1.40;0.90;;;34.60;53.80;;;;;;4989850;28;20578;-78
2023/06/12 11:42:36;;;;;;;1.42;1.00;;;34.60;53.20;;;;;;4983291;28;20255;-78
2023/06/12 11:45:04;;;;;;;1.40;0.80;;;34.80;52.40;;;;;;4993296;28;20197;-81
2023/06/12 11:47:31;;;;;;;1.63;1.50;;;34.80;53.00;;;;;;4983536;28;20271;-79
2023/06/12 11:49:58;;;;;;;1.40;0.80;;;34.90;52.80;;;;;;4991097;28;20202;-83
2023/06/12 11:52:25;;;;;;;1.40;0.80;;;34.90;52.90;;;;;;4984197;28;20248;-81
2023/06/12 11:54:57;;;;;;;1.50;1.27;;;34.80;53.10;;;;;;4991462;28;20201;-80
2023/06/12 11:57:27;;;;;;;1.40;0.80;;;34.60;53.30;;;;;;4979761;28;20224;-79
2023/06/12 11:59:57;;;;;;;1.40;0.80;;;34.60;53.60;;;;;;4986341;28;20208;-82
2023/06/12 12:02:32;;;;;;;1.40;0.80;;;34.90;53.60;;;;;;4979480;28;20237;-81
2023/06/12 12:05:00;;;;;;;1.40;0.80;;;35.30;53.40;;;;;;4986683;28;20217;-78
2023/06/12 12:07:30;;;;;;;1.40;0.80;;;35.30;53.20;;;;;;4975526;28;20688;-78
2023/06/12 12:10:09;;;;;;;1.40;0.80;;;35.50;53.20;;;;;;4984239;28;20209;-77
2023/06/12 12:12:45;;;;;;;1.40;0.80;;;35.50;52.60;;;;;;4974281;28;20256;-77
2023/06/12 12:15:13;;;;;;;1.40;0.80;;;35.50;52.70;;;;;;4987051;28;20242;-80
2023/06/12 12:17:41;;;;;;;1.40;0.80;;;35.30;52.70;;;;;;4979124;28;20264;-80
2023/06/12 12:20:14;;;;;;;1.70;1.00;;;35.40;53.20;;;;;;4987037;28;20204;-79
2023/06/12 12:22:43;;;;;;;1.40;0.80;;;35.20;53.00;;;;;;4976241;28;20787;-78
2023/06/12 12:25:15;;;;;;;1.40;0.80;;;35.20;52.60;;;;;;4991478;28;20648;-80
2023/06/12 12:27:45;;;;;;;1.40;0.80;;;35.20;51.90;;;;;;4979913;28;20282;-78
2023/06/12 12:30:15;;;;;;;1.40;0.80;;;35.40;52.30;;;;;;4985182;28;20197;-78
2023/06/12 12:32:44;;;;;;;1.40;0.80;;;35.40;51.60;;;;;;4979620;28;20237;-79
2023/06/12 12:35:11;;;;;;;1.60;1.20;;;35.40;51.70;;;;;;4989326;28;20205;-76
2023/06/12 12:37:38;;;;;;;1.40;0.80;;;35.70;51.20;;;;;;4982698;28;20237;-79
2023/06/12 12:40:09;;;;;;;1.40;0.80;;;35.60;51.20;;;;;;4986407;28;20206;-79
2023/06/12 12:42:36;;;;;;;1.70;1.00;;;35.60;51.70;;;;;;4980737;28;20271;-80
2023/06/12 12:45:06;;;;;;;1.40;0.80;;;35.50;51.60;;;;;;4990047;28;20205;-80
2023/06/12 12:47:34;;;;;;;1.40;0.80;;;35.80;51.70;;;;;;4982237;28;20260;-80
2023/06/12 12:50:00;;;;;;;1.40;1.00;;;35.80;51.40;;;;;;4988743;28;20216;-81
2023/06/12 12:52:27;;;;;;;1.40;0.80;;;35.90;51.70;;;;;;4980690;28;20241;-80
2023/06/12 12:54:54;;;;;;;1.40;0.80;;;36.00;52.30;;;;;;4991276;28;20201;-79